createdAt,value
2017-08-31T06:34:26.141Z,25.79
2017-08-31T06:35:26.119Z,25.79
2017-08-31T06:37:20.325Z,25.83
2017-08-31T06:38:20.276Z,25.83
2017-08-31T06:40:13.179Z,25.82
2017-08-31T06:41:13.186Z,25.88
2017-08-31T06:43:06.108Z,25.91
2017-08-31T06:44:06.082Z,25.98
2017-08-31T06:45:59.380Z,25.94
2017-08-31T06:46:59.020Z,25.83
2017-08-31T06:48:51.933Z,26.02
2017-08-31T06:49:51.936Z,25.99
2017-08-31T06:51:44.868Z,26.01
2017-08-31T06:52:44.882Z,25.97
2017-08-31T06:54:37.806Z,26.05
2017-08-31T06:55:37.798Z,26.06
2017-08-31T06:57:31.241Z,26.06
2017-08-31T06:58:31.222Z,26.02
2017-08-31T07:00:24.174Z,26.15
2017-08-31T07:01:24.150Z,26.10
2017-08-31T07:03:17.207Z,26.05
2017-08-31T07:04:17.086Z,26.10
2017-08-31T07:06:10.019Z,26.13
2017-08-31T07:07:10.011Z,26.09
2017-08-31T07:09:02.926Z,26.17
2017-08-31T07:10:02.925Z,26.10
2017-08-31T07:11:55.868Z,26.07
2017-08-31T07:12:55.850Z,26.07
2017-08-31T07:14:48.791Z,26.12
2017-08-31T07:15:48.795Z,26.12
2017-08-31T07:17:41.728Z,26.18
2017-08-31T07:18:41.723Z,26.20
2017-08-31T07:20:35.150Z,26.10
2017-08-31T07:21:35.129Z,26.20
2017-08-31T07:23:28.075Z,26.20
2017-08-31T07:24:28.080Z,26.20
2017-08-31T07:26:20.993Z,26.13
2017-08-31T07:27:20.997Z,26.21
2017-08-31T07:29:14.405Z,26.17
2017-08-31T07:30:14.411Z,26.17
2017-08-31T07:32:07.365Z,26.15
2017-08-31T07:33:07.336Z,26.12
2017-08-31T07:35:00.288Z,26.25
2017-08-31T07:36:00.310Z,26.23
2017-08-31T07:37:53.200Z,26.26
2017-08-31T07:38:53.201Z,26.18
2017-08-31T07:40:46.629Z,26.21
2017-08-31T07:41:46.645Z,26.20
2017-08-31T07:43:39.888Z,26.26
2017-08-31T07:44:39.578Z,26.15
2017-08-31T07:46:32.519Z,26.15
2017-08-31T07:47:32.498Z,26.20
2017-08-31T07:49:25.942Z,26.26
2017-08-31T07:50:25.459Z,26.25
2017-08-31T07:52:18.381Z,26.18
2017-08-31T07:53:18.399Z,26.26
2017-08-31T07:55:11.316Z,26.15
2017-08-31T07:56:11.580Z,26.21
2017-08-31T07:58:04.810Z,26.21
2017-08-31T07:59:04.746Z,26.23
2017-08-31T08:00:57.752Z,26.28
2017-08-31T08:01:57.728Z,26.21
2017-08-31T08:03:51.162Z,26.20
2017-08-31T08:04:51.169Z,26.29
2017-08-31T08:06:44.086Z,26.25
2017-08-31T08:07:44.080Z,26.25
2017-08-31T08:09:37.003Z,26.26
2017-08-31T08:10:37.020Z,26.21
2017-08-31T08:12:29.942Z,26.29
2017-08-31T08:13:29.931Z,26.28
2017-08-31T08:15:22.887Z,26.23
2017-08-31T08:16:22.870Z,26.28
2017-08-31T08:18:15.812Z,26.29
2017-08-31T08:19:15.829Z,26.17
2017-08-31T08:21:08.922Z,26.23
2017-08-31T08:22:08.750Z,26.21
2017-08-31T08:24:02.163Z,26.30
2017-08-31T08:25:02.164Z,26.26
2017-08-31T08:26:55.153Z,26.21
2017-08-31T08:27:55.122Z,26.32
2017-08-31T08:29:49.082Z,26.29
2017-08-31T08:30:49.078Z,26.21
2017-08-31T08:32:42.501Z,26.23
2017-08-31T08:33:42.516Z,26.26
2017-08-31T08:35:35.438Z,26.28
2017-08-31T08:36:35.437Z,26.29
2017-08-31T08:38:28.427Z,26.28
2017-08-31T08:39:28.425Z,26.13
2017-08-31T08:41:21.361Z,26.32
2017-08-31T08:42:21.375Z,26.36
2017-08-31T08:44:14.335Z,26.29
2017-08-31T08:45:14.321Z,26.43
2017-08-31T08:47:07.568Z,26.33
2017-08-31T08:48:07.284Z,26.35
2017-08-31T08:50:00.238Z,26.32
2017-08-31T08:51:00.230Z,26.35
2017-08-31T08:52:53.690Z,26.25
2017-08-31T08:53:53.656Z,26.32
2017-08-31T08:55:46.592Z,26.40
2017-08-31T08:56:46.593Z,26.33
2017-08-31T08:58:40.548Z,26.39
2017-08-31T08:59:40.579Z,26.36
2017-08-31T09:01:34.534Z,26.36
2017-08-31T09:02:34.541Z,26.29
2017-08-31T09:04:28.501Z,26.39
2017-08-31T09:05:28.522Z,26.35
2017-08-31T09:07:22.603Z,26.36
2017-08-31T09:08:22.492Z,26.44
2017-08-31T09:10:15.453Z,26.39
2017-08-31T09:11:15.440Z,26.35
2017-08-31T09:13:09.515Z,26.37
2017-08-31T09:14:09.489Z,26.45
2017-08-31T09:16:02.396Z,26.36
2017-08-31T09:17:02.395Z,26.36
2017-08-31T09:18:56.375Z,26.39
2017-08-31T09:19:56.384Z,26.36
2017-08-31T09:21:49.329Z,26.35
2017-08-31T09:22:49.300Z,26.43
2017-08-31T09:24:42.785Z,26.35
2017-08-31T09:25:42.756Z,26.35
2017-08-31T09:27:35.701Z,26.37
2017-08-31T09:28:35.683Z,26.33
2017-08-31T09:30:29.701Z,26.37
2017-08-31T09:31:29.689Z,26.44
2017-08-31T09:33:22.640Z,26.36
2017-08-31T09:34:22.613Z,26.48
2017-08-31T09:36:16.624Z,26.37
2017-08-31T09:37:16.632Z,26.37
2017-08-31T09:39:10.586Z,26.40
2017-08-31T09:40:10.571Z,26.32
2017-08-31T09:42:03.627Z,26.39
2017-08-31T09:43:03.492Z,26.36
2017-08-31T09:44:57.486Z,26.43
2017-08-31T09:45:57.513Z,26.39
2017-08-31T09:47:51.404Z,26.47
2017-08-31T09:48:50.939Z,26.44
2017-08-31T09:50:44.366Z,26.40
2017-08-31T09:51:44.363Z,26.37
2017-08-31T09:53:37.318Z,26.43
2017-08-31T09:54:37.337Z,26.43
2017-08-31T09:56:30.752Z,26.39
2017-08-31T09:57:30.731Z,26.50
2017-08-31T09:59:24.453Z,26.39
2017-08-31T10:00:24.187Z,26.47
2017-08-31T10:02:18.147Z,26.37
2017-08-31T10:03:18.135Z,26.40
2017-08-31T10:05:11.060Z,26.44
2017-08-31T10:06:11.329Z,26.36
2017-08-31T10:08:05.053Z,26.43
2017-08-31T10:09:05.043Z,26.39
2017-08-31T10:10:58.992Z,26.43
2017-08-31T10:11:59.901Z,26.36
2017-08-31T10:13:52.976Z,26.40
2017-08-31T10:14:52.958Z,26.33
2017-08-31T10:16:45.904Z,26.36
2017-08-31T10:17:45.888Z,26.32
2017-08-31T10:19:40.138Z,26.39
2017-08-31T10:20:39.848Z,26.40
2017-08-31T10:22:32.890Z,26.43
2017-08-31T10:23:32.821Z,26.43
2017-08-31T10:25:26.568Z,26.48
2017-08-31T10:26:26.242Z,26.39
2017-08-31T10:28:19.718Z,26.47
2017-08-31T10:29:19.731Z,26.39
2017-08-31T10:31:14.107Z,26.43
2017-08-31T10:32:13.690Z,26.43
2017-08-31T10:34:07.677Z,26.47
2017-08-31T10:35:07.661Z,26.47
2017-08-31T10:37:00.841Z,26.47
2017-08-31T10:38:00.567Z,26.45
2017-08-31T10:39:53.498Z,26.48
2017-08-31T10:40:53.511Z,26.52
2017-08-31T10:42:46.470Z,26.55
2017-08-31T10:43:46.453Z,26.57
2017-08-31T10:45:39.395Z,26.54
2017-08-31T10:46:39.400Z,26.39
2017-08-31T10:48:32.592Z,26.37
2017-08-31T10:49:32.335Z,26.50
2017-08-31T10:51:25.257Z,26.45
2017-08-31T10:52:25.259Z,26.51
2017-08-31T10:54:19.521Z,26.51
2017-08-31T10:55:19.247Z,26.51
2017-08-31T10:57:13.199Z,26.51
2017-08-31T10:58:13.188Z,26.40
2017-08-31T11:00:06.141Z,26.51
2017-08-31T11:01:06.422Z,26.51
2017-08-31T11:02:59.070Z,26.52
2017-08-31T11:03:59.053Z,26.50
2017-08-31T11:05:53.083Z,26.40
2017-08-31T11:06:53.050Z,26.51
2017-08-31T11:08:45.997Z,26.55
2017-08-31T11:09:46.042Z,26.54
2017-08-31T11:11:39.977Z,26.45
2017-08-31T11:14:34.211Z,26.50
2017-08-31T11:15:33.922Z,26.55
2017-08-31T11:17:26.876Z,26.47
2017-08-31T11:18:26.865Z,26.50
2017-08-31T11:20:20.076Z,26.47
2017-08-31T11:21:19.815Z,26.52
2017-08-31T11:23:12.751Z,26.43
2017-08-31T11:24:12.747Z,26.48
2017-08-31T11:26:06.083Z,26.51
2017-08-31T11:27:05.681Z,26.51
2017-08-31T11:28:58.718Z,26.51
2017-08-31T11:29:58.734Z,26.48
2017-08-31T11:31:52.394Z,26.52
2017-08-31T11:32:52.348Z,26.54
2017-08-31T11:34:45.020Z,26.51
2017-08-31T11:35:45.106Z,26.55
2017-08-31T11:37:37.955Z,26.60
2017-08-31T11:38:37.944Z,26.57
2017-08-31T11:40:30.996Z,26.52
2017-08-31T11:41:30.909Z,26.60
2017-08-31T11:43:23.840Z,26.60
2017-08-31T11:44:23.846Z,26.57
2017-08-31T11:46:17.272Z,26.55
2017-08-31T11:47:17.253Z,26.54
2017-08-31T11:49:10.239Z,26.58
2017-08-31T11:50:10.219Z,26.66
2017-08-31T11:52:03.142Z,26.54
2017-08-31T11:53:03.148Z,26.60
2017-08-31T11:54:56.647Z,26.55
2017-08-31T11:55:56.653Z,26.51
2017-08-31T11:57:50.074Z,26.58
2017-08-31T11:58:50.057Z,26.60
2017-08-31T12:00:44.037Z,26.51
2017-08-31T12:01:44.021Z,26.65
2017-08-31T12:03:36.993Z,26.70
2017-08-31T12:04:37.014Z,26.58
2017-08-31T12:07:30.568Z,26.58
2017-08-31T12:09:23.598Z,26.60
2017-08-31T12:10:23.440Z,26.55
2017-08-31T12:12:16.828Z,26.57
2017-08-31T12:13:16.899Z,26.55
2017-08-31T12:15:11.718Z,26.58
2017-08-31T12:16:10.992Z,26.55
2017-08-31T12:18:04.561Z,26.62
2017-08-31T12:19:04.551Z,26.50
2017-08-31T12:20:58.698Z,26.48
2017-08-31T12:21:58.227Z,26.65
2017-08-31T12:23:51.769Z,26.55
2017-08-31T12:24:51.715Z,26.62
2017-08-31T12:26:45.141Z,26.48
2017-08-31T12:27:44.795Z,26.66
2017-08-31T12:29:39.350Z,26.60
2017-08-31T12:30:39.351Z,26.54
2017-08-31T12:32:34.531Z,26.50
2017-08-31T12:33:34.020Z,26.52
2017-08-31T12:34:34.040Z,26.60
2017-08-31T12:35:34.149Z,26.60
2017-08-31T12:36:34.062Z,26.52
2017-08-31T12:37:34.086Z,26.58
2017-08-31T12:38:34.099Z,26.54
2017-08-31T12:39:34.189Z,26.60
2017-08-31T12:40:34.486Z,26.60
2017-08-31T12:41:34.203Z,26.54
2017-08-31T12:42:34.211Z,26.63
2017-08-31T12:43:34.221Z,26.62
2017-08-31T12:44:34.639Z,26.65
2017-08-31T12:45:34.266Z,26.63
2017-08-31T12:46:34.299Z,26.55
2017-08-31T12:47:34.292Z,26.60
2017-08-31T12:48:34.326Z,26.66
2017-08-31T12:49:34.368Z,26.60
2017-08-31T12:50:34.372Z,26.66
2017-08-31T12:51:34.918Z,26.66
2017-08-31T12:52:34.476Z,26.62
2017-08-31T12:53:34.570Z,26.63
2017-08-31T12:54:34.484Z,26.70
2017-08-31T12:55:34.494Z,26.70
2017-08-31T12:56:34.481Z,26.66
2017-08-31T12:57:34.506Z,26.60
2017-08-31T12:58:34.916Z,26.66
2017-08-31T12:59:34.540Z,26.66
2017-08-31T13:00:34.579Z,26.66
2017-08-31T13:01:34.585Z,26.66
2017-08-31T13:02:34.632Z,26.63
2017-08-31T13:03:34.632Z,26.60
2017-08-31T13:04:34.658Z,26.66
2017-08-31T13:05:35.189Z,26.58
2017-08-31T13:06:34.710Z,26.67
2017-08-31T13:07:34.737Z,26.62
2017-08-31T13:08:34.750Z,26.60
2017-08-31T13:09:34.778Z,26.67
2017-08-31T13:10:34.811Z,26.63
2017-08-31T13:11:34.845Z,26.65
2017-08-31T13:12:35.229Z,26.67
2017-08-31T13:13:34.882Z,26.63
2017-08-31T13:14:34.886Z,26.62
2017-08-31T13:15:34.928Z,26.62
2017-08-31T13:16:34.956Z,26.58
2017-08-31T13:17:34.973Z,26.65
2017-08-31T13:18:34.995Z,26.65
2017-08-31T13:19:35.465Z,26.70
2017-08-31T13:20:35.032Z,26.57
2017-08-31T13:21:35.071Z,26.67
2017-08-31T13:22:35.072Z,26.69
2017-08-31T13:23:35.096Z,26.57
2017-08-31T13:24:35.168Z,26.66
2017-08-31T13:25:35.144Z,26.60
2017-08-31T13:26:35.515Z,26.69
2017-08-31T13:27:35.206Z,26.67
2017-08-31T13:28:35.236Z,26.69
2017-08-31T13:29:35.234Z,26.58
2017-08-31T13:30:35.256Z,26.65
2017-08-31T13:31:35.277Z,26.66
2017-08-31T13:32:35.302Z,26.60
2017-08-31T13:33:35.788Z,26.63
2017-08-31T13:34:35.372Z,26.67
2017-08-31T13:35:35.373Z,26.63
2017-08-31T13:36:35.394Z,26.60
2017-08-31T13:37:35.434Z,26.66
2017-08-31T13:38:35.443Z,26.69
2017-08-31T13:39:35.465Z,26.58
2017-08-31T13:40:35.823Z,26.65
2017-08-31T13:41:35.511Z,26.65
2017-08-31T13:42:35.535Z,26.60
2017-08-31T13:43:35.566Z,26.63
2017-08-31T13:44:35.588Z,26.69
2017-08-31T13:45:35.617Z,26.67
2017-08-31T13:46:35.645Z,26.63
2017-08-31T13:47:36.098Z,26.65
2017-08-31T13:48:35.707Z,26.70
2017-08-31T13:49:35.701Z,26.70
2017-08-31T13:50:35.721Z,26.76
2017-08-31T13:51:35.744Z,26.69
2017-08-31T13:52:35.773Z,26.69
2017-08-31T13:53:35.807Z,26.73
2017-08-31T13:54:36.345Z,26.70
2017-08-31T13:55:35.856Z,26.65
2017-08-31T13:56:35.865Z,26.70
2017-08-31T13:57:35.888Z,26.67
2017-08-31T13:58:35.923Z,26.75
2017-08-31T13:59:35.934Z,26.70
2017-08-31T14:00:35.954Z,26.69
2017-08-31T14:01:36.002Z,26.72
2017-08-31T14:02:36.018Z,26.75
2017-08-31T14:03:36.022Z,26.62
2017-08-31T14:04:36.066Z,26.76
2017-08-31T14:05:36.092Z,26.69
2017-08-31T14:06:36.615Z,26.69
2017-08-31T14:07:36.160Z,26.69
2017-08-31T14:08:36.141Z,26.70
2017-08-31T14:09:36.165Z,26.70
2017-08-31T14:10:36.201Z,26.77
2017-08-31T14:11:36.208Z,26.81
2017-08-31T14:12:36.233Z,26.73
2017-08-31T14:13:36.296Z,26.77
2017-08-31T14:14:36.295Z,26.69
2017-08-31T14:15:36.301Z,26.72
2017-08-31T14:16:36.353Z,26.72
2017-08-31T14:17:36.369Z,26.75
2017-08-31T14:18:36.819Z,26.72
2017-08-31T14:19:36.426Z,26.75
2017-08-31T14:20:36.455Z,26.81
2017-08-31T14:21:36.853Z,26.76
2017-08-31T14:22:36.472Z,26.73
2017-08-31T14:23:36.504Z,26.77
2017-08-31T14:24:36.533Z,26.76
2017-08-31T14:25:36.538Z,26.73
2017-08-31T14:26:36.584Z,26.72
2017-08-31T14:27:36.586Z,26.72
2017-08-31T14:28:36.611Z,26.76
2017-08-31T14:29:36.631Z,26.80
2017-08-31T14:30:37.095Z,26.76
2017-08-31T14:31:36.711Z,26.81
2017-08-31T14:32:36.719Z,26.80
2017-08-31T14:33:36.719Z,26.80
2017-08-31T14:34:36.768Z,26.73
2017-08-31T14:35:36.771Z,26.81
2017-08-31T14:36:36.812Z,26.77
2017-08-31T14:37:36.831Z,26.80
2017-08-31T14:38:36.852Z,26.76
2017-08-31T14:39:36.894Z,26.87
2017-08-31T14:40:36.904Z,26.80
2017-08-31T14:41:36.935Z,26.85
2017-08-31T14:42:37.370Z,26.84
2017-08-31T14:43:36.975Z,26.85
2017-08-31T14:44:36.997Z,26.81
2017-08-31T14:45:37.001Z,26.82
2017-08-31T14:46:37.041Z,26.85
2017-08-31T14:47:37.049Z,26.87
2017-08-31T14:48:37.092Z,26.89
2017-08-31T14:49:37.112Z,26.94
2017-08-31T14:50:37.118Z,26.87
2017-08-31T14:51:37.167Z,26.95
2017-08-31T14:52:37.186Z,26.95
2017-08-31T14:53:37.190Z,26.99
2017-08-31T14:54:37.664Z,26.95
2017-08-31T14:55:37.251Z,27.02
2017-08-31T14:56:37.306Z,27.00
2017-08-31T14:57:37.317Z,27.02
2017-08-31T14:58:37.311Z,27.02
2017-08-31T14:59:37.330Z,26.97
2017-08-31T15:00:37.368Z,26.99
2017-08-31T15:01:37.378Z,27.02
2017-08-31T15:02:37.398Z,27.07
2017-08-31T15:03:37.423Z,27.04
2017-08-31T15:04:37.470Z,27.04
2017-08-31T15:05:37.520Z,27.10
2017-08-31T15:06:37.944Z,27.09
2017-08-31T15:07:37.547Z,27.12
2017-08-31T15:08:37.571Z,27.07
2017-08-31T15:09:37.567Z,27.09
2017-08-31T15:10:37.604Z,27.04
2017-08-31T15:11:37.625Z,27.10
2017-08-31T15:12:37.658Z,27.13
2017-08-31T15:13:38.076Z,27.12
2017-08-31T15:14:37.701Z,27.17
2017-08-31T15:15:37.724Z,27.12
2017-08-31T15:16:37.752Z,27.19
2017-08-31T15:17:37.770Z,27.07
2017-08-31T15:18:37.779Z,27.22
2017-08-31T15:19:37.818Z,27.24
2017-08-31T15:20:38.348Z,27.18
2017-08-31T15:21:37.855Z,27.12
2017-08-31T15:22:37.891Z,27.22
2017-08-31T15:23:37.893Z,27.25
2017-08-31T15:24:37.920Z,27.18
2017-08-31T15:25:37.962Z,27.27
2017-08-31T15:26:37.968Z,27.25
2017-08-31T15:27:38.402Z,27.27
2017-08-31T15:28:38.033Z,27.24
2017-08-31T15:29:38.053Z,27.28
2017-08-31T15:30:38.058Z,27.29
2017-08-31T15:31:38.107Z,27.24
2017-08-31T15:32:38.123Z,27.27
2017-08-31T15:33:38.151Z,27.29
2017-08-31T15:34:38.539Z,27.32
2017-08-31T15:35:38.176Z,27.28
2017-08-31T15:36:38.478Z,27.31
2017-08-31T15:37:38.370Z,27.31
2017-08-31T15:38:38.378Z,27.25
2017-08-31T15:39:38.366Z,27.31
2017-08-31T15:40:38.368Z,27.37
2017-08-31T15:41:39.613Z,27.34
2017-08-31T15:42:38.361Z,27.28
2017-08-31T15:43:38.427Z,27.39
2017-08-31T15:44:38.424Z,27.32
2017-08-31T15:45:38.445Z,27.39
2017-08-31T15:46:38.460Z,27.34
2017-08-31T15:47:38.479Z,27.39
2017-08-31T15:48:38.935Z,27.39
2017-08-31T15:49:38.542Z,27.39
2017-08-31T15:50:38.540Z,27.41
2017-08-31T15:51:38.604Z,27.44
2017-08-31T15:52:38.600Z,27.43
2017-08-31T15:53:38.621Z,27.44
2017-08-31T15:54:38.647Z,27.46
2017-08-31T15:55:38.976Z,27.44
2017-08-31T15:56:38.697Z,27.51
2017-08-31T15:57:38.703Z,27.41
2017-08-31T15:58:38.731Z,27.47
2017-08-31T15:59:38.765Z,27.40
2017-08-31T16:00:38.778Z,27.49
2017-08-31T16:01:38.803Z,27.49
2017-08-31T16:02:39.225Z,27.46
2017-08-31T16:03:38.873Z,27.43
2017-08-31T16:04:38.879Z,27.41
2017-08-31T16:05:38.889Z,27.49
2017-08-31T16:06:38.942Z,27.43
2017-08-31T16:07:38.940Z,27.44
2017-08-31T16:08:38.968Z,27.55
2017-08-31T16:09:39.520Z,27.55
2017-08-31T16:10:39.037Z,27.57
2017-08-31T16:11:39.034Z,27.62
2017-08-31T16:12:39.096Z,27.59
2017-08-31T16:13:39.097Z,27.57
2017-08-31T16:14:39.113Z,27.60
2017-08-31T16:15:39.141Z,27.66
2017-08-31T16:16:39.159Z,27.70
2017-08-31T16:17:39.196Z,27.55
2017-08-31T16:18:39.208Z,27.62
2017-08-31T16:19:39.402Z,27.70
2017-08-31T16:20:39.266Z,27.72
2017-08-31T16:21:39.771Z,27.63
2017-08-31T16:22:39.305Z,27.67
2017-08-31T16:23:39.323Z,27.62
2017-08-31T16:24:39.359Z,27.75
2017-08-31T16:25:39.370Z,27.60
2017-08-31T16:26:39.413Z,27.74
2017-08-31T16:27:46.869Z,27.75
2017-08-31T16:28:39.457Z,27.78
2017-08-31T16:29:39.486Z,27.60
2017-08-31T16:30:39.487Z,27.79
2017-08-31T16:31:39.569Z,27.67
2017-08-31T16:32:39.571Z,27.70
2017-08-31T16:33:40.087Z,27.66
2017-08-31T16:34:39.590Z,27.62
2017-08-31T16:35:39.645Z,27.63
2017-08-31T16:36:39.649Z,27.77
2017-08-31T16:37:39.673Z,27.63
2017-08-31T16:38:39.706Z,27.69
2017-08-31T16:39:39.707Z,27.60
2017-08-31T16:40:39.735Z,27.69
2017-08-31T16:41:39.753Z,27.77
2017-08-31T16:42:39.799Z,27.74
2017-08-31T16:43:39.797Z,27.74
2017-08-31T16:44:39.865Z,27.75
2017-08-31T16:45:40.351Z,27.70
2017-08-31T16:46:39.895Z,27.67
2017-08-31T16:47:39.919Z,27.79
2017-08-31T16:48:39.940Z,27.79
2017-08-31T16:49:39.961Z,27.78
2017-08-31T16:50:39.988Z,27.81
2017-08-31T16:51:39.999Z,27.81
2017-08-31T16:52:40.014Z,27.74
2017-08-31T16:53:40.060Z,27.74
2017-08-31T16:54:40.091Z,27.69
2017-08-31T16:55:40.107Z,27.77
2017-08-31T16:56:40.128Z,27.70
2017-08-31T16:57:40.645Z,27.70
2017-08-31T16:58:40.197Z,27.75
2017-08-31T16:59:40.205Z,27.74
2017-08-31T17:00:40.237Z,27.70
2017-08-31T17:01:40.236Z,27.69
2017-08-31T17:02:40.423Z,27.74
2017-08-31T17:03:40.288Z,27.70
2017-08-31T17:04:41.702Z,27.74
2017-08-31T17:05:40.331Z,27.75
2017-08-31T17:06:40.378Z,27.70
2017-08-31T17:07:40.392Z,27.74
2017-08-31T17:08:40.402Z,27.70
2017-08-31T17:09:40.917Z,27.74
2017-08-31T17:10:40.487Z,27.77
2017-08-31T17:11:40.486Z,27.81
2017-08-31T17:12:40.519Z,27.72
2017-08-31T17:13:40.530Z,27.70
2017-08-31T17:14:40.557Z,27.77
2017-08-31T17:15:40.594Z,27.74
2017-08-31T17:16:40.606Z,27.70
2017-08-31T17:17:40.658Z,27.70
2017-08-31T17:18:40.654Z,27.70
2017-08-31T17:19:40.679Z,27.67
2017-08-31T17:20:40.685Z,27.74
2017-08-31T17:21:41.221Z,27.72
2017-08-31T17:22:40.749Z,27.74
2017-08-31T17:23:40.774Z,27.63
2017-08-31T17:24:40.849Z,27.77
2017-08-31T17:25:40.812Z,27.75
2017-08-31T17:26:40.853Z,27.74
2017-08-31T17:27:40.862Z,27.70
2017-08-31T17:28:41.270Z,27.74
2017-08-31T17:29:40.908Z,27.69
2017-08-31T17:30:40.948Z,27.77
2017-08-31T17:31:40.949Z,27.69
2017-08-31T17:32:40.990Z,27.77
2017-08-31T17:33:41.060Z,27.74
2017-08-31T17:34:41.039Z,27.79
2017-08-31T17:35:41.506Z,27.75
2017-08-31T17:36:41.147Z,27.75
2017-08-31T17:37:41.113Z,27.74
2017-08-31T17:38:41.117Z,27.57
2017-08-31T17:39:41.321Z,27.70
2017-08-31T17:40:41.360Z,27.74
2017-08-31T17:41:41.189Z,27.66
2017-08-31T17:42:41.563Z,27.57
2017-08-31T17:43:41.237Z,27.67
2017-08-31T17:44:41.260Z,27.66
2017-08-31T17:45:41.293Z,27.69
2017-08-31T17:46:41.350Z,27.70
2017-08-31T17:47:41.330Z,27.63
2017-08-31T17:48:41.382Z,27.63
2017-08-31T17:49:41.800Z,27.70
2017-08-31T17:50:41.438Z,27.62
2017-08-31T17:51:41.433Z,27.62
2017-08-31T17:52:41.482Z,27.72
2017-08-31T17:53:41.505Z,27.69
2017-08-31T17:54:41.502Z,27.63
2017-08-31T17:55:41.540Z,27.66
2017-08-31T17:56:41.856Z,27.63
2017-08-31T17:57:41.574Z,27.62
2017-08-31T17:58:41.599Z,27.60
2017-08-31T17:59:41.621Z,27.62
2017-08-31T18:00:41.662Z,27.63
2017-08-31T18:01:41.668Z,27.59
2017-08-31T18:02:41.697Z,27.69
2017-08-31T18:03:42.202Z,27.63
2017-08-31T18:04:41.739Z,27.67
2017-08-31T18:05:41.788Z,27.60
2017-08-31T18:06:41.802Z,27.67
2017-08-31T18:07:41.828Z,27.67
2017-08-31T18:08:41.855Z,27.59
2017-08-31T18:09:41.868Z,27.62
2017-08-31T18:10:42.246Z,27.60
2017-08-31T18:11:41.921Z,27.55
2017-08-31T18:12:41.945Z,27.55
2017-08-31T18:13:41.954Z,27.66
2017-08-31T18:14:41.995Z,27.67
2017-08-31T18:15:42.003Z,27.55
2017-08-31T18:16:42.030Z,27.60
2017-08-31T18:17:42.497Z,27.62
2017-08-31T18:18:42.113Z,27.67
2017-08-31T18:19:42.111Z,27.63
2017-08-31T18:20:42.120Z,27.63
2017-08-31T18:21:42.175Z,27.59
2017-08-31T18:22:42.184Z,27.63
2017-08-31T18:23:42.192Z,27.54
2017-08-31T18:24:42.561Z,27.55
2017-08-31T18:25:42.244Z,27.59
2017-08-31T18:26:42.288Z,27.57
2017-08-31T18:27:42.317Z,27.54
2017-08-31T18:28:42.326Z,27.51
2017-08-31T18:29:42.351Z,27.63
2017-08-31T18:30:42.378Z,27.60
2017-08-31T18:31:42.811Z,27.54
2017-08-31T18:32:42.424Z,27.54
2017-08-31T18:33:42.463Z,27.54
2017-08-31T18:34:42.468Z,27.57
2017-08-31T18:35:42.479Z,27.55
2017-08-31T18:36:42.530Z,27.55
2017-08-31T18:37:42.545Z,27.51
2017-08-31T18:38:42.551Z,27.49
2017-08-31T18:39:42.597Z,27.41
2017-08-31T18:40:42.656Z,27.59
2017-08-31T18:41:42.647Z,27.41
2017-08-31T18:42:42.665Z,27.57
2017-08-31T18:43:43.009Z,27.46
2017-08-31T18:44:42.714Z,27.59
2017-08-31T18:45:42.720Z,27.46
2017-08-31T18:46:42.750Z,27.55
2017-08-31T18:47:42.836Z,27.57
2017-08-31T18:48:42.807Z,27.46
2017-08-31T18:49:42.813Z,27.59
2017-08-31T18:50:42.851Z,27.49
2017-08-31T18:51:42.881Z,27.47
2017-08-31T18:52:42.890Z,27.44
2017-08-31T18:53:42.909Z,27.50
2017-08-31T18:54:42.947Z,27.49
2017-08-31T18:55:42.953Z,27.50
2017-08-31T18:56:42.980Z,27.50
2017-08-31T18:57:43.003Z,27.44
2017-08-31T18:58:43.045Z,27.54
2017-08-31T18:59:43.064Z,27.50
2017-08-31T19:00:43.090Z,27.47
2017-08-31T19:01:43.540Z,27.39
2017-08-31T19:02:43.146Z,27.44
2017-08-31T19:03:43.147Z,27.41
2017-08-31T19:04:43.172Z,27.41
2017-08-31T19:05:43.209Z,27.47
2017-08-31T19:06:43.233Z,27.41
2017-08-31T19:07:43.238Z,27.44
2017-08-31T19:08:43.272Z,27.44
2017-08-31T19:09:43.288Z,27.50
2017-08-31T19:10:43.332Z,27.43
2017-08-31T19:11:43.365Z,27.43
2017-08-31T19:12:43.375Z,27.47
2017-08-31T19:13:43.674Z,27.41
2017-08-31T19:14:43.422Z,27.41
2017-08-31T19:15:43.457Z,27.43
2017-08-31T19:16:43.460Z,27.40
2017-08-31T19:17:43.477Z,27.39
2017-08-31T19:18:43.509Z,27.28
2017-08-31T19:19:43.542Z,27.25
2017-08-31T19:20:43.566Z,27.29
2017-08-31T19:21:43.594Z,27.31
2017-08-31T19:22:43.620Z,27.32
2017-08-31T19:23:43.640Z,27.31
2017-08-31T19:24:43.669Z,27.25
2017-08-31T19:25:44.111Z,27.25
2017-08-31T19:26:43.688Z,27.24
2017-08-31T19:27:43.730Z,27.22
2017-08-31T19:28:43.766Z,27.18
2017-08-31T19:29:43.784Z,27.22
2017-08-31T19:30:43.784Z,27.28
2017-08-31T19:31:43.808Z,27.21
2017-08-31T19:32:43.831Z,27.21
2017-08-31T19:33:43.872Z,27.19
2017-08-31T19:34:43.879Z,27.21
2017-08-31T19:35:43.907Z,27.21
2017-08-31T19:36:43.962Z,27.17
2017-08-31T19:37:44.399Z,27.19
2017-08-31T19:38:43.975Z,27.22
2017-08-31T19:39:44.016Z,27.22
2017-08-31T19:40:44.041Z,27.18
2017-08-31T19:41:44.050Z,27.24
2017-08-31T19:42:44.083Z,27.24
2017-08-31T19:43:44.096Z,27.19
2017-08-31T19:44:44.432Z,27.22
2017-08-31T19:45:44.141Z,27.10
2017-08-31T19:46:44.181Z,27.14
2017-08-31T19:47:44.187Z,27.10
2017-08-31T19:48:44.213Z,27.10
2017-08-31T19:49:44.234Z,27.10
2017-08-31T19:50:44.271Z,27.09
2017-08-31T19:51:44.570Z,27.19
2017-08-31T19:52:44.302Z,27.09
2017-08-31T19:53:44.329Z,27.06
2017-08-31T19:54:44.370Z,27.09
2017-08-31T19:55:44.388Z,27.07
2017-08-31T19:56:44.393Z,27.12
2017-08-31T19:57:44.437Z,27.13
2017-08-31T19:58:44.854Z,27.09
2017-08-31T19:59:44.482Z,27.12
2017-08-31T20:00:44.517Z,27.03
2017-08-31T20:01:44.529Z,27.12
2017-08-31T20:02:44.556Z,27.12
2017-08-31T20:03:44.579Z,27.07
2017-08-31T20:04:44.600Z,27.02
2017-08-31T20:05:45.110Z,27.13
2017-08-31T20:06:44.635Z,27.07
2017-08-31T20:07:44.668Z,27.06
2017-08-31T20:08:44.683Z,27.07
2017-08-31T20:09:44.704Z,27.07
2017-08-31T20:10:44.722Z,27.10
2017-08-31T20:11:44.750Z,27.09
2017-08-31T20:12:45.140Z,27.07
2017-08-31T20:13:44.809Z,27.10
2017-08-31T20:14:44.834Z,27.09
2017-08-31T20:15:44.858Z,27.10
2017-08-31T20:16:44.884Z,27.07
2017-08-31T20:17:44.888Z,27.04
2017-08-31T20:18:44.927Z,27.03
2017-08-31T20:19:45.398Z,27.03
2017-08-31T20:20:44.982Z,27.03
2017-08-31T20:21:44.997Z,27.03
2017-08-31T20:22:45.022Z,27.03
2017-08-31T20:23:45.064Z,27.04
2017-08-31T20:24:45.060Z,27.06
2017-08-31T20:25:45.094Z,26.99
2017-08-31T20:26:45.479Z,27.12
2017-08-31T20:27:45.140Z,26.99
2017-08-31T20:28:45.143Z,26.94
2017-08-31T20:29:45.183Z,27.00
2017-08-31T20:30:45.215Z,26.94
2017-08-31T20:31:45.216Z,26.94
2017-08-31T20:32:45.246Z,26.99
2017-08-31T20:33:45.700Z,27.03
2017-08-31T20:34:45.285Z,27.00
2017-08-31T20:35:45.306Z,27.00
2017-08-31T20:36:45.336Z,27.02
2017-08-31T20:37:45.352Z,27.02
2017-08-31T20:38:45.417Z,26.97
2017-08-31T20:39:45.421Z,27.02
2017-08-31T20:40:45.734Z,27.04
2017-08-31T20:41:45.445Z,26.95
2017-08-31T20:42:45.500Z,27.04
2017-08-31T20:43:45.491Z,26.99
2017-08-31T20:44:45.537Z,26.99
2017-08-31T20:45:45.540Z,26.99
2017-08-31T20:46:45.577Z,27.00
2017-08-31T20:47:45.999Z,26.95
2017-08-31T20:48:45.625Z,26.95
2017-08-31T20:49:45.655Z,26.95
2017-08-31T20:50:45.684Z,26.97
2017-08-31T20:51:45.682Z,26.94
2017-08-31T20:52:45.716Z,26.84
2017-08-31T20:53:45.722Z,26.89
2017-08-31T20:54:45.747Z,26.87
2017-08-31T20:55:45.790Z,26.82
2017-08-31T20:56:45.792Z,26.82
2017-08-31T20:57:45.820Z,26.85
2017-08-31T20:58:45.838Z,26.89
2017-08-31T20:59:46.275Z,26.87
2017-08-31T21:00:45.913Z,26.77
2017-08-31T21:01:45.909Z,26.82
2017-08-31T21:02:45.938Z,26.80
2017-08-31T21:03:45.957Z,26.76
2017-08-31T21:04:45.995Z,26.75
2017-08-31T21:05:46.000Z,26.77
2017-08-31T21:06:46.023Z,26.77
2017-08-31T21:07:46.069Z,26.76
2017-08-31T21:08:46.093Z,26.70
2017-08-31T21:09:46.107Z,26.75
2017-08-31T21:10:46.131Z,26.73
2017-08-31T21:11:46.569Z,26.70
2017-08-31T21:12:46.169Z,26.70
2017-08-31T21:13:46.207Z,26.69
2017-08-31T21:14:46.231Z,26.66
2017-08-31T21:15:46.262Z,26.67
2017-08-31T21:16:46.276Z,26.69
2017-08-31T21:17:46.299Z,26.65
2017-08-31T21:18:46.315Z,26.66